sensor_id;sensor_type;location;lat;lon;timestamp;P1;durP1;ratioP1;P2;durP2;ratioP2
40827;SDS011;26549;50.918;5.338;2022-12-22T00:01:34;3.40;;;1.40;;
40827;SDS011;26549;50.918;5.338;2022-12-22T00:04:19;2.22;;;1.63;;
40827;SDS011;26549;50.918;5.338;2022-12-22T00:07:04;1.85;;;1.75;;
40827;SDS011;26549;50.918;5.338;2022-12-22T00:09:48;1.70;;;1.38;;
40827;SDS011;26549;50.918;5.338;2022-12-22T00:12:33;1.65;;;1.55;;
40827;SDS011;26549;50.918;5.338;2022-12-22T00:15:17;3.35;;;1.50;;
40827;SDS011;26549;50.918;5.338;2022-12-22T00:18:02;2.05;;;1.27;;
40827;SDS011;26549;50.918;5.338;2022-12-22T00:20:48;3.23;;;1.37;;
40827;SDS011;26549;50.918;5.338;2022-12-22T00:23:32;0.98;;;0.90;;
40827;SDS011;26549;50.918;5.338;2022-12-22T00:26:17;3.13;;;1.30;;
40827;SDS011;26549;50.918;5.338;2022-12-22T00:29:02;2.65;;;1.30;;
40827;SDS011;26549;50.918;5.338;2022-12-22T00:31:47;1.70;;;0.98;;
40827;SDS011;26549;50.918;5.338;2022-12-22T00:34:38;3.00;;;1.20;;
40827;SDS011;26549;50.918;5.338;2022-12-22T00:37:28;2.35;;;1.33;;
40827;SDS011;26549;50.918;5.338;2022-12-22T00:40:16;1.98;;;1.55;;
40827;SDS011;26549;50.918;5.338;2022-12-22T00:43:02;3.20;;;1.23;;
40827;SDS011;26549;50.918;5.338;2022-12-22T00:45:47;1.48;;;0.90;;
40827;SDS011;26549;50.918;5.338;2022-12-22T00:48:33;1.00;;;0.98;;
40827;SDS011;26549;50.918;5.338;2022-12-22T00:51:18;1.63;;;1.25;;
40827;SDS011;26549;50.918;5.338;2022-12-22T00:54:02;1.27;;;1.17;;
40827;SDS011;26549;50.918;5.338;2022-12-22T00:56:51;1.50;;;1.40;;
40827;SDS011;26549;50.918;5.338;2022-12-22T00:59:35;2.35;;;1.35;;
40827;SDS011;26549;50.918;5.338;2022-12-22T01:02:19;2.60;;;1.38;;
40827;SDS011;26549;50.918;5.338;2022-12-22T01:05:03;2.40;;;1.10;;
40827;SDS011;26549;50.918;5.338;2022-12-22T01:07:48;1.05;;;0.95;;
40827;SDS011;26549;50.918;5.338;2022-12-22T01:10:32;1.38;;;1.15;;
40827;SDS011;26549;50.918;5.338;2022-12-22T01:13:16;3.63;;;1.17;;
40827;SDS011;26549;50.918;5.338;2022-12-22T01:16:01;2.58;;;0.95;;
40827;SDS011;26549;50.918;5.338;2022-12-22T01:18:45;2.60;;;1.17;;
40827;SDS011;26549;50.918;5.338;2022-12-22T01:21:29;2.42;;;1.30;;
40827;SDS011;26549;50.918;5.338;2022-12-22T01:24:15;2.75;;;1.00;;
40827;SDS011;26549;50.918;5.338;2022-12-22T01:27:00;0.95;;;0.88;;
40827;SDS011;26549;50.918;5.338;2022-12-22T01:29:45;2.73;;;1.13;;
40827;SDS011;26549;50.918;5.338;2022-12-22T01:32:30;2.67;;;0.90;;
40827;SDS011;26549;50.918;5.338;2022-12-22T01:35:18;1.00;;;0.90;;
40827;SDS011;26549;50.918;5.338;2022-12-22T01:38:06;1.92;;;0.85;;
40827;SDS011;26549;50.918;5.338;2022-12-22T01:40:51;3.35;;;1.10;;
40827;SDS011;26549;50.918;5.338;2022-12-22T01:43:37;1.33;;;0.85;;
40827;SDS011;26549;50.918;5.338;2022-12-22T01:49:09;0.70;;;0.70;;
40827;SDS011;26549;50.918;5.338;2022-12-22T01:52:00;0.63;;;0.60;;
40827;SDS011;26549;50.918;5.338;2022-12-22T01:54:44;1.00;;;0.90;;
40827;SDS011;26549;50.918;5.338;2022-12-22T01:57:30;1.00;;;0.97;;
40827;SDS011;26549;50.918;5.338;2022-12-22T02:00:15;1.25;;;0.73;;
40827;SDS011;26549;50.918;5.338;2022-12-22T02:03:00;3.05;;;0.65;;
40827;SDS011;26549;50.918;5.338;2022-12-22T02:05:56;2.28;;;1.70;;
40827;SDS011;26549;50.918;5.338;2022-12-22T02:09:04;0.98;;;0.90;;
40827;SDS011;26549;50.918;5.338;2022-12-22T02:12:09;0.82;;;0.70;;
40827;SDS011;26549;50.918;5.338;2022-12-22T02:15:14;1.63;;;0.70;;
40827;SDS011;26549;50.918;5.338;2022-12-22T02:18:14;1.60;;;0.70;;
40827;SDS011;26549;50.918;5.338;2022-12-22T02:21:07;1.17;;;0.85;;
40827;SDS011;26549;50.918;5.338;2022-12-22T02:24:04;0.57;;;0.57;;
40827;SDS011;26549;50.918;5.338;2022-12-22T02:27:09;0.82;;;0.57;;
40827;SDS011;26549;50.918;5.338;2022-12-22T02:29:56;1.73;;;0.90;;
40827;SDS011;26549;50.918;5.338;2022-12-22T02:32:43;0.70;;;0.70;;
40827;SDS011;26549;50.918;5.338;2022-12-22T02:35:30;0.70;;;0.63;;
40827;SDS011;26549;50.918;5.338;2022-12-22T02:41:47;1.27;;;0.80;;
40827;SDS011;26549;50.918;5.338;2022-12-22T02:51:06;1.30;;;1.20;;
40827;SDS011;26549;50.918;5.338;2022-12-22T02:53:57;1.15;;;1.05;;
40827;SDS011;26549;50.918;5.338;2022-12-22T02:56:42;1.75;;;1.05;;
40827;SDS011;26549;50.918;5.338;2022-12-22T02:59:29;1.55;;;0.80;;
40827;SDS011;26549;50.918;5.338;2022-12-22T03:02:14;3.92;;;0.90;;
40827;SDS011;26549;50.918;5.338;2022-12-22T03:04:58;2.95;;;1.00;;
40827;SDS011;26549;50.918;5.338;2022-12-22T03:07:42;1.30;;;1.00;;
40827;SDS011;26549;50.918;5.338;2022-12-22T03:10:26;4.45;;;1.83;;
40827;SDS011;26549;50.918;5.338;2022-12-22T03:13:10;1.88;;;1.02;;
40827;SDS011;26549;50.918;5.338;2022-12-22T03:15:55;2.63;;;1.10;;
40827;SDS011;26549;50.918;5.338;2022-12-22T03:18:39;1.35;;;1.25;;
40827;SDS011;26549;50.918;5.338;2022-12-22T03:21:23;2.17;;;1.08;;
40827;SDS011;26549;50.918;5.338;2022-12-22T03:24:08;1.80;;;1.08;;
40827;SDS011;26549;50.918;5.338;2022-12-22T03:26:52;3.10;;;1.20;;
40827;SDS011;26549;50.918;5.338;2022-12-22T03:29:18;1.55;;;0.82;;
40827;SDS011;26549;50.918;5.338;2022-12-22T03:31:44;1.30;;;0.90;;
40827;SDS011;26549;50.918;5.338;2022-12-22T03:34:10;3.83;;;1.45;;
40827;SDS011;26549;50.918;5.338;2022-12-22T03:36:36;1.50;;;1.40;;
40827;SDS011;26549;50.918;5.338;2022-12-22T03:39:02;1.25;;;1.00;;
40827;SDS011;26549;50.918;5.338;2022-12-22T03:41:28;1.58;;;1.02;;
40827;SDS011;26549;50.918;5.338;2022-12-22T03:44:13;4.53;;;1.08;;
40827;SDS011;26549;50.918;5.338;2022-12-22T03:46:57;2.42;;;1.10;;
40827;SDS011;26549;50.918;5.338;2022-12-22T03:49:23;2.63;;;1.50;;
40827;SDS011;26549;50.918;5.338;2022-12-22T03:51:50;1.38;;;1.20;;
40827;SDS011;26549;50.918;5.338;2022-12-22T03:54:18;3.25;;;1.70;;
40827;SDS011;26549;50.918;5.338;2022-12-22T03:56:46;1.25;;;1.08;;
40827;SDS011;26549;50.918;5.338;2022-12-22T03:59:14;2.28;;;1.00;;
40827;SDS011;26549;50.918;5.338;2022-12-22T04:01:50;1.20;;;1.10;;
40827;SDS011;26549;50.918;5.338;2022-12-22T04:04:19;4.20;;;1.65;;
40827;SDS011;26549;50.918;5.338;2022-12-22T04:06:46;1.90;;;1.73;;
40827;SDS011;26549;50.918;5.338;2022-12-22T04:09:13;1.10;;;1.00;;
40827;SDS011;26549;50.918;5.338;2022-12-22T04:11:39;1.92;;;1.00;;
40827;SDS011;26549;50.918;5.338;2022-12-22T04:14:24;1.97;;;1.60;;
40827;SDS011;26549;50.918;5.338;2022-12-22T04:16:50;2.05;;;0.88;;
40827;SDS011;26549;50.918;5.338;2022-12-22T04:19:16;2.17;;;1.40;;
40827;SDS011;26549;50.918;5.338;2022-12-22T04:21:42;1.73;;;1.30;;
40827;SDS011;26549;50.918;5.338;2022-12-22T04:24:09;3.05;;;1.25;;
40827;SDS011;26549;50.918;5.338;2022-12-22T04:26:36;2.20;;;2.00;;
40827;SDS011;26549;50.918;5.338;2022-12-22T04:29:02;1.40;;;1.30;;
40827;SDS011;26549;50.918;5.338;2022-12-22T04:31:28;10.48;;;1.60;;
40827;SDS011;26549;50.918;5.338;2022-12-22T04:33:54;2.20;;;1.13;;
40827;SDS011;26549;50.918;5.338;2022-12-22T04:36:20;12.43;;;1.48;;
40827;SDS011;26549;50.918;5.338;2022-12-22T04:38:46;1.60;;;0.80;;
40827;SDS011;26549;50.918;5.338;2022-12-22T04:41:12;4.53;;;1.33;;
40827;SDS011;26549;50.918;5.338;2022-12-22T04:43:38;6.13;;;1.33;;
40827;SDS011;26549;50.918;5.338;2022-12-22T04:46:04;1.70;;;1.35;;
40827;SDS011;26549;50.918;5.338;2022-12-22T04:48:31;2.58;;;1.13;;
40827;SDS011;26549;50.918;5.338;2022-12-22T04:50:58;1.55;;;1.30;;
40827;SDS011;26549;50.918;5.338;2022-12-22T04:53:26;3.28;;;1.70;;
40827;SDS011;26549;50.918;5.338;2022-12-22T04:55:54;15.57;;;2.22;;
40827;SDS011;26549;50.918;5.338;2022-12-22T04:58:24;20.15;;;2.50;;
40827;SDS011;26549;50.918;5.338;2022-12-22T05:00:50;1.23;;;1.13;;
40827;SDS011;26549;50.918;5.338;2022-12-22T05:03:17;1.50;;;1.40;;
40827;SDS011;26549;50.918;5.338;2022-12-22T05:05:43;1.52;;;1.42;;
40827;SDS011;26549;50.918;5.338;2022-12-22T05:08:09;2.15;;;1.35;;
40827;SDS011;26549;50.918;5.338;2022-12-22T05:10:35;2.28;;;1.45;;
40827;SDS011;26549;50.918;5.338;2022-12-22T05:13:01;2.30;;;1.65;;
40827;SDS011;26549;50.918;5.338;2022-12-22T05:15:28;2.35;;;1.48;;
40827;SDS011;26549;50.918;5.338;2022-12-22T05:17:58;1.50;;;1.30;;
40827;SDS011;26549;50.918;5.338;2022-12-22T05:20:25;2.17;;;1.63;;
40827;SDS011;26549;50.918;5.338;2022-12-22T05:22:52;15.02;;;2.53;;
40827;SDS011;26549;50.918;5.338;2022-12-22T05:25:18;2.33;;;1.63;;
40827;SDS011;26549;50.918;5.338;2022-12-22T05:27:44;5.55;;;1.83;;
40827;SDS011;26549;50.918;5.338;2022-12-22T05:30:12;2.45;;;1.65;;
40827;SDS011;26549;50.918;5.338;2022-12-22T05:32:39;1.70;;;1.40;;
40827;SDS011;26549;50.918;5.338;2022-12-22T05:35:06;1.88;;;1.50;;
40827;SDS011;26549;50.918;5.338;2022-12-22T05:37:35;2.72;;;2.03;;
40827;SDS011;26549;50.918;5.338;2022-12-22T05:40:01;2.50;;;1.75;;
40827;SDS011;26549;50.918;5.338;2022-12-22T05:42:28;1.98;;;1.50;;
40827;SDS011;26549;50.918;5.338;2022-12-22T05:45:21;5.18;;;1.75;;
40827;SDS011;26549;50.918;5.338;2022-12-22T05:47:48;1.90;;;1.50;;
40827;SDS011;26549;50.918;5.338;2022-12-22T05:50:17;3.53;;;1.80;;
40827;SDS011;26549;50.918;5.338;2022-12-22T05:52:45;3.25;;;1.92;;
40827;SDS011;26549;50.918;5.338;2022-12-22T05:55:12;2.20;;;1.60;;
40827;SDS011;26549;50.918;5.338;2022-12-22T05:57:38;1.90;;;1.65;;
40827;SDS011;26549;50.918;5.338;2022-12-22T06:00:06;2.53;;;1.65;;
40827;SDS011;26549;50.918;5.338;2022-12-22T06:02:34;3.17;;;2.45;;
40827;SDS011;26549;50.918;5.338;2022-12-22T06:05:00;2.50;;;2.15;;
40827;SDS011;26549;50.918;5.338;2022-12-22T06:07:26;3.20;;;2.22;;
40827;SDS011;26549;50.918;5.338;2022-12-22T06:09:52;3.97;;;2.47;;
40827;SDS011;26549;50.918;5.338;2022-12-22T06:12:18;2.80;;;2.28;;
40827;SDS011;26549;50.918;5.338;2022-12-22T06:14:44;3.20;;;2.03;;
40827;SDS011;26549;50.918;5.338;2022-12-22T06:17:10;3.30;;;2.28;;
40827;SDS011;26549;50.918;5.338;2022-12-22T06:19:36;4.30;;;2.60;;
40827;SDS011;26549;50.918;5.338;2022-12-22T06:22:02;3.10;;;2.80;;
40827;SDS011;26549;50.918;5.338;2022-12-22T06:24:28;2.90;;;2.63;;
40827;SDS011;26549;50.918;5.338;2022-12-22T06:26:54;4.20;;;3.20;;
40827;SDS011;26549;50.918;5.338;2022-12-22T06:29:20;7.30;;;3.42;;
40827;SDS011;26549;50.918;5.338;2022-12-22T06:31:46;3.75;;;3.40;;
40827;SDS011;26549;50.918;5.338;2022-12-22T06:34:12;4.20;;;3.55;;
40827;SDS011;26549;50.918;5.338;2022-12-22T06:36:42;7.80;;;4.63;;
40827;SDS011;26549;50.918;5.338;2022-12-22T06:39:11;4.80;;;4.30;;
40827;SDS011;26549;50.918;5.338;2022-12-22T06:41:38;6.10;;;4.93;;
40827;SDS011;26549;50.918;5.338;2022-12-22T06:44:22;6.15;;;5.07;;
40827;SDS011;26549;50.918;5.338;2022-12-22T06:46:49;7.93;;;6.00;;
40827;SDS011;26549;50.918;5.338;2022-12-22T06:49:16;8.77;;;6.80;;
40827;SDS011;26549;50.918;5.338;2022-12-22T06:51:42;7.68;;;6.72;;
40827;SDS011;26549;50.918;5.338;2022-12-22T06:54:08;8.63;;;6.85;;
40827;SDS011;26549;50.918;5.338;2022-12-22T06:56:37;8.70;;;7.18;;
40827;SDS011;26549;50.918;5.338;2022-12-22T06:59:03;12.05;;;6.75;;
40827;SDS011;26549;50.918;5.338;2022-12-22T07:01:30;10.88;;;8.20;;
40827;SDS011;26549;50.918;5.338;2022-12-22T07:03:56;11.02;;;8.13;;
40827;SDS011;26549;50.918;5.338;2022-12-22T07:06:22;9.73;;;7.40;;
40827;SDS011;26549;50.918;5.338;2022-12-22T07:11:42;13.90;;;8.07;;
40827;SDS011;26549;50.918;5.338;2022-12-22T07:14:08;14.02;;;8.75;;
40827;SDS011;26549;50.918;5.338;2022-12-22T07:16:35;12.25;;;9.43;;
40827;SDS011;26549;50.918;5.338;2022-12-22T07:19:01;13.85;;;9.65;;
40827;SDS011;26549;50.918;5.338;2022-12-22T07:21:27;15.10;;;9.32;;
40827;SDS011;26549;50.918;5.338;2022-12-22T07:23:53;11.68;;;8.65;;
40827;SDS011;26549;50.918;5.338;2022-12-22T07:26:19;13.43;;;9.27;;
40827;SDS011;26549;50.918;5.338;2022-12-22T07:28:45;10.50;;;8.00;;
40827;SDS011;26549;50.918;5.338;2022-12-22T07:31:11;12.18;;;8.40;;
40827;SDS011;26549;50.918;5.338;2022-12-22T07:33:40;12.27;;;9.25;;
40827;SDS011;26549;50.918;5.338;2022-12-22T07:36:07;15.13;;;9.82;;
40827;SDS011;26549;50.918;5.338;2022-12-22T07:38:40;12.70;;;9.32;;
40827;SDS011;26549;50.918;5.338;2022-12-22T07:41:08;13.65;;;9.32;;
40827;SDS011;26549;50.918;5.338;2022-12-22T07:43:54;14.25;;;9.98;;
40827;SDS011;26549;50.918;5.338;2022-12-22T07:46:22;14.32;;;9.95;;
40827;SDS011;26549;50.918;5.338;2022-12-22T07:48:49;14.05;;;10.20;;
40827;SDS011;26549;50.918;5.338;2022-12-22T07:51:35;15.20;;;10.48;;
40827;SDS011;26549;50.918;5.338;2022-12-22T07:54:04;14.82;;;10.32;;
40827;SDS011;26549;50.918;5.338;2022-12-22T07:56:31;15.90;;;11.43;;
40827;SDS011;26549;50.918;5.338;2022-12-22T07:58:57;17.25;;;11.93;;
40827;SDS011;26549;50.918;5.338;2022-12-22T08:01:22;17.48;;;11.90;;
40827;SDS011;26549;50.918;5.338;2022-12-22T08:03:49;21.25;;;13.45;;
40827;SDS011;26549;50.918;5.338;2022-12-22T08:06:15;20.90;;;13.75;;
40827;SDS011;26549;50.918;5.338;2022-12-22T08:08:41;18.95;;;12.93;;
40827;SDS011;26549;50.918;5.338;2022-12-22T08:11:07;21.73;;;13.43;;
40827;SDS011;26549;50.918;5.338;2022-12-22T08:13:33;20.13;;;13.52;;
40827;SDS011;26549;50.918;5.338;2022-12-22T08:16:03;21.02;;;13.13;;
40827;SDS011;26549;50.918;5.338;2022-12-22T08:18:31;21.08;;;12.80;;
40827;SDS011;26549;50.918;5.338;2022-12-22T08:20:57;20.38;;;11.48;;
40827;SDS011;26549;50.918;5.338;2022-12-22T08:23:23;19.90;;;12.88;;
40827;SDS011;26549;50.918;5.338;2022-12-22T08:25:51;20.50;;;12.45;;
40827;SDS011;26549;50.918;5.338;2022-12-22T08:29:14;24.00;;;12.95;;
40827;SDS011;26549;50.918;5.338;2022-12-22T08:31:45;19.77;;;12.07;;
40827;SDS011;26549;50.918;5.338;2022-12-22T08:34:13;19.52;;;11.68;;
40827;SDS011;26549;50.918;5.338;2022-12-22T08:36:41;21.05;;;13.23;;
40827;SDS011;26549;50.918;5.338;2022-12-22T08:39:10;19.75;;;12.50;;
40827;SDS011;26549;50.918;5.338;2022-12-22T08:41:37;21.67;;;12.20;;
40827;SDS011;26549;50.918;5.338;2022-12-22T08:44:16;22.35;;;13.15;;
40827;SDS011;26549;50.918;5.338;2022-12-22T08:46:46;22.48;;;13.88;;
40827;SDS011;26549;50.918;5.338;2022-12-22T08:49:12;22.58;;;12.55;;
40827;SDS011;26549;50.918;5.338;2022-12-22T08:51:41;22.27;;;12.38;;
40827;SDS011;26549;50.918;5.338;2022-12-22T08:54:08;22.52;;;13.73;;
40827;SDS011;26549;50.918;5.338;2022-12-22T08:56:34;25.92;;;13.27;;
40827;SDS011;26549;50.918;5.338;2022-12-22T08:59:00;24.38;;;14.00;;
40827;SDS011;26549;50.918;5.338;2022-12-22T09:01:29;25.42;;;14.13;;
40827;SDS011;26549;50.918;5.338;2022-12-22T09:03:57;21.90;;;13.98;;
40827;SDS011;26549;50.918;5.338;2022-12-22T09:06:23;23.17;;;13.38;;
40827;SDS011;26549;50.918;5.338;2022-12-22T09:08:56;25.23;;;15.63;;
40827;SDS011;26549;50.918;5.338;2022-12-22T09:11:24;22.77;;;13.73;;
40827;SDS011;26549;50.918;5.338;2022-12-22T09:13:52;24.70;;;12.60;;
40827;SDS011;26549;50.918;5.338;2022-12-22T09:16:19;22.02;;;12.10;;
40827;SDS011;26549;50.918;5.338;2022-12-22T09:18:47;22.85;;;11.23;;
40827;SDS011;26549;50.918;5.338;2022-12-22T09:21:14;23.60;;;12.88;;
40827;SDS011;26549;50.918;5.338;2022-12-22T09:23:41;23.83;;;13.00;;
40827;SDS011;26549;50.918;5.338;2022-12-22T09:26:08;22.73;;;12.48;;
40827;SDS011;26549;50.918;5.338;2022-12-22T09:28:39;23.77;;;12.02;;
40827;SDS011;26549;50.918;5.338;2022-12-22T09:31:05;24.17;;;14.13;;
40827;SDS011;26549;50.918;5.338;2022-12-22T09:33:32;27.52;;;14.07;;
40827;SDS011;26549;50.918;5.338;2022-12-22T09:36:10;26.02;;;13.65;;
40827;SDS011;26549;50.918;5.338;2022-12-22T09:38:45;24.48;;;13.73;;
40827;SDS011;26549;50.918;5.338;2022-12-22T09:41:19;25.45;;;13.75;;
40827;SDS011;26549;50.918;5.338;2022-12-22T09:43:55;23.77;;;13.93;;
40827;SDS011;26549;50.918;5.338;2022-12-22T09:46:27;24.98;;;13.43;;
40827;SDS011;26549;50.918;5.338;2022-12-22T09:48:56;19.42;;;12.02;;
40827;SDS011;26549;50.918;5.338;2022-12-22T09:51:22;23.17;;;12.75;;
40827;SDS011;26549;50.918;5.338;2022-12-22T09:53:59;19.77;;;12.38;;
40827;SDS011;26549;50.918;5.338;2022-12-22T09:56:27;20.25;;;12.65;;
40827;SDS011;26549;50.918;5.338;2022-12-22T09:58:53;19.38;;;11.95;;
40827;SDS011;26549;50.918;5.338;2022-12-22T10:04:01;21.23;;;13.15;;
40827;SDS011;26549;50.918;5.338;2022-12-22T10:06:42;22.77;;;13.43;;
40827;SDS011;26549;50.918;5.338;2022-12-22T10:09:30;24.10;;;12.82;;
40827;SDS011;26549;50.918;5.338;2022-12-22T10:11:59;21.23;;;13.63;;
40827;SDS011;26549;50.918;5.338;2022-12-22T10:14:36;24.75;;;13.07;;
40827;SDS011;26549;50.918;5.338;2022-12-22T10:19:54;21.48;;;11.82;;
40827;SDS011;26549;50.918;5.338;2022-12-22T10:22:35;19.98;;;11.70;;
40827;SDS011;26549;50.918;5.338;2022-12-22T10:25:36;20.08;;;12.98;;
40827;SDS011;26549;50.918;5.338;2022-12-22T10:28:05;19.20;;;11.68;;
40827;SDS011;26549;50.918;5.338;2022-12-22T10:30:36;25.95;;;12.55;;
40827;SDS011;26549;50.918;5.338;2022-12-22T10:33:11;20.67;;;12.23;;
40827;SDS011;26549;50.918;5.338;2022-12-22T10:35:44;19.70;;;12.05;;
40827;SDS011;26549;50.918;5.338;2022-12-22T10:38:19;22.23;;;11.60;;
40827;SDS011;26549;50.918;5.338;2022-12-22T10:40:53;22.35;;;11.75;;
40827;SDS011;26549;50.918;5.338;2022-12-22T10:43:27;18.83;;;11.77;;
40827;SDS011;26549;50.918;5.338;2022-12-22T10:48:29;20.60;;;11.90;;
40827;SDS011;26549;50.918;5.338;2022-12-22T10:50:58;19.83;;;11.00;;
40827;SDS011;26549;50.918;5.338;2022-12-22T10:56:05;21.23;;;12.20;;
40827;SDS011;26549;50.918;5.338;2022-12-22T10:58:46;18.10;;;10.13;;
40827;SDS011;26549;50.918;5.338;2022-12-22T11:01:14;20.25;;;11.52;;
40827;SDS011;26549;50.918;5.338;2022-12-22T11:03:48;21.90;;;10.80;;
40827;SDS011;26549;50.918;5.338;2022-12-22T11:06:14;14.48;;;8.32;;
40827;SDS011;26549;50.918;5.338;2022-12-22T11:08:41;17.90;;;9.48;;
40827;SDS011;26549;50.918;5.338;2022-12-22T11:11:09;18.20;;;9.85;;
40827;SDS011;26549;50.918;5.338;2022-12-22T11:14:11;15.98;;;10.48;;
40827;SDS011;26549;50.918;5.338;2022-12-22T11:17:07;17.63;;;9.93;;
40827;SDS011;26549;50.918;5.338;2022-12-22T11:19:50;18.55;;;9.55;;
40827;SDS011;26549;50.918;5.338;2022-12-22T11:22:33;14.38;;;9.00;;
40827;SDS011;26549;50.918;5.338;2022-12-22T11:25:17;18.55;;;9.80;;
40827;SDS011;26549;50.918;5.338;2022-12-22T11:28:15;19.23;;;9.13;;
40827;SDS011;26549;50.918;5.338;2022-12-22T11:33:27;18.42;;;10.77;;
40827;SDS011;26549;50.918;5.338;2022-12-22T11:36:03;18.83;;;8.57;;
40827;SDS011;26549;50.918;5.338;2022-12-22T11:38:54;15.20;;;8.77;;
40827;SDS011;26549;50.918;5.338;2022-12-22T11:41:46;15.23;;;9.02;;
40827;SDS011;26549;50.918;5.338;2022-12-22T11:44:39;15.57;;;7.35;;
40827;SDS011;26549;50.918;5.338;2022-12-22T11:47:31;12.07;;;7.78;;
40827;SDS011;26549;50.918;5.338;2022-12-22T11:59:06;10.30;;;7.03;;
40827;SDS011;26549;50.918;5.338;2022-12-22T12:07:53;5.38;;;3.40;;
40827;SDS011;26549;50.918;5.338;2022-12-22T12:10:27;5.80;;;4.25;;
40827;SDS011;26549;50.918;5.338;2022-12-22T12:16:04;7.85;;;3.42;;
40827;SDS011;26549;50.918;5.338;2022-12-22T12:22:12;5.22;;;2.88;;
40827;SDS011;26549;50.918;5.338;2022-12-22T12:24:19;5.22;;;2.85;;
40827;SDS011;26549;50.918;5.338;2022-12-22T12:27:07;3.63;;;2.90;;
40827;SDS011;26549;50.918;5.338;2022-12-22T12:35:21;4.60;;;3.13;;
40827;SDS011;26549;50.918;5.338;2022-12-22T12:43:45;7.17;;;3.50;;
40827;SDS011;26549;50.918;5.338;2022-12-22T12:52:03;4.78;;;3.50;;
40827;SDS011;26549;50.918;5.338;2022-12-22T13:05:32;2.28;;;2.00;;
40827;SDS011;26549;50.918;5.338;2022-12-22T13:08:04;1.83;;;1.50;;
40827;SDS011;26549;50.918;5.338;2022-12-22T13:10:34;2.40;;;1.10;;
40827;SDS011;26549;50.918;5.338;2022-12-22T13:13:03;2.75;;;1.33;;
40827;SDS011;26549;50.918;5.338;2022-12-22T13:15:34;4.40;;;1.17;;
40827;SDS011;26549;50.918;5.338;2022-12-22T13:18:02;2.45;;;1.20;;
40827;SDS011;26549;50.918;5.338;2022-12-22T13:20:34;2.97;;;1.40;;
40827;SDS011;26549;50.918;5.338;2022-12-22T13:23:02;3.85;;;2.05;;
40827;SDS011;26549;50.918;5.338;2022-12-22T13:28:13;2.08;;;1.02;;
40827;SDS011;26549;50.918;5.338;2022-12-22T13:30:44;3.33;;;1.63;;
40827;SDS011;26549;50.918;5.338;2022-12-22T13:33:18;1.38;;;1.27;;
40827;SDS011;26549;50.918;5.338;2022-12-22T13:35:48;2.47;;;1.35;;
40827;SDS011;26549;50.918;5.338;2022-12-22T13:38:28;1.35;;;1.25;;
40827;SDS011;26549;50.918;5.338;2022-12-22T13:40:54;3.50;;;1.40;;
40827;SDS011;26549;50.918;5.338;2022-12-22T13:43:22;6.90;;;1.52;;
40827;SDS011;26549;50.918;5.338;2022-12-22T13:45:54;1.40;;;1.30;;
40827;SDS011;26549;50.918;5.338;2022-12-22T13:51:23;1.33;;;1.23;;
40827;SDS011;26549;50.918;5.338;2022-12-22T13:53:53;3.08;;;1.30;;
40827;SDS011;26549;50.918;5.338;2022-12-22T13:56:22;3.38;;;1.40;;
40827;SDS011;26549;50.918;5.338;2022-12-22T13:58:56;2.78;;;1.30;;
40827;SDS011;26549;50.918;5.338;2022-12-22T14:01:25;2.30;;;1.40;;
40827;SDS011;26549;50.918;5.338;2022-12-22T14:03:57;1.20;;;1.10;;
40827;SDS011;26549;50.918;5.338;2022-12-22T14:06:28;3.22;;;1.88;;
40827;SDS011;26549;50.918;5.338;2022-12-22T14:09:10;2.15;;;1.23;;
40827;SDS011;26549;50.918;5.338;2022-12-22T14:11:43;1.55;;;1.20;;
40827;SDS011;26549;50.918;5.338;2022-12-22T14:14:30;2.15;;;1.63;;
40827;SDS011;26549;50.918;5.338;2022-12-22T14:17:00;1.98;;;1.23;;
40827;SDS011;26549;50.918;5.338;2022-12-22T14:19:29;2.88;;;1.48;;
40827;SDS011;26549;50.918;5.338;2022-12-22T14:22:07;4.18;;;1.27;;
40827;SDS011;26549;50.918;5.338;2022-12-22T14:24:42;3.22;;;1.55;;
40827;SDS011;26549;50.918;5.338;2022-12-22T14:27:16;1.08;;;0.98;;
40827;SDS011;26549;50.918;5.338;2022-12-22T14:29:47;1.80;;;0.90;;
40827;SDS011;26549;50.918;5.338;2022-12-22T14:32:34;1.40;;;1.27;;
40827;SDS011;26549;50.918;5.338;2022-12-22T14:35:26;1.23;;;0.90;;
40827;SDS011;26549;50.918;5.338;2022-12-22T14:37:54;1.50;;;1.15;;
40827;SDS011;26549;50.918;5.338;2022-12-22T14:40:33;2.10;;;1.00;;
40827;SDS011;26549;50.918;5.338;2022-12-22T14:43:02;2.25;;;0.90;;
40827;SDS011;26549;50.918;5.338;2022-12-22T14:45:30;3.42;;;0.95;;
40827;SDS011;26549;50.918;5.338;2022-12-22T14:47:56;1.80;;;1.17;;
40827;SDS011;26549;50.918;5.338;2022-12-22T14:50:23;1.27;;;1.15;;
40827;SDS011;26549;50.918;5.338;2022-12-22T14:52:59;2.58;;;0.82;;
40827;SDS011;26549;50.918;5.338;2022-12-22T14:58:05;1.58;;;1.00;;
40827;SDS011;26549;50.918;5.338;2022-12-22T15:00:36;1.27;;;0.70;;
40827;SDS011;26549;50.918;5.338;2022-12-22T15:03:24;3.70;;;1.40;;
40827;SDS011;26549;50.918;5.338;2022-12-22T15:05:49;4.25;;;1.40;;
40827;SDS011;26549;50.918;5.338;2022-12-22T15:08:38;5.22;;;1.73;;
40827;SDS011;26549;50.918;5.338;2022-12-22T15:11:09;4.60;;;1.20;;
40827;SDS011;26549;50.918;5.338;2022-12-22T15:13:39;9.10;;;3.00;;
40827;SDS011;26549;50.918;5.338;2022-12-22T15:16:05;2.72;;;1.27;;
40827;SDS011;26549;50.918;5.338;2022-12-22T15:18:31;6.43;;;2.88;;
40827;SDS011;26549;50.918;5.338;2022-12-22T15:20:57;2.88;;;2.15;;
40827;SDS011;26549;50.918;5.338;2022-12-22T15:23:23;4.20;;;1.40;;
40827;SDS011;26549;50.918;5.338;2022-12-22T15:25:49;4.75;;;1.77;;
40827;SDS011;26549;50.918;5.338;2022-12-22T15:28:14;10.80;;;1.80;;
40827;SDS011;26549;50.918;5.338;2022-12-22T15:30:40;11.80;;;3.05;;
40827;SDS011;26549;50.918;5.338;2022-12-22T15:33:13;6.53;;;1.90;;
40827;SDS011;26549;50.918;5.338;2022-12-22T15:35:41;7.60;;;2.08;;
40827;SDS011;26549;50.918;5.338;2022-12-22T15:38:14;7.78;;;1.80;;
40827;SDS011;26549;50.918;5.338;2022-12-22T15:40:43;10.10;;;2.10;;
40827;SDS011;26549;50.918;5.338;2022-12-22T15:43:09;9.07;;;2.58;;
40827;SDS011;26549;50.918;5.338;2022-12-22T15:45:35;9.88;;;2.55;;
40827;SDS011;26549;50.918;5.338;2022-12-22T15:48:03;11.98;;;2.75;;
40827;SDS011;26549;50.918;5.338;2022-12-22T15:50:34;15.55;;;2.45;;
40827;SDS011;26549;50.918;5.338;2022-12-22T15:53:02;7.68;;;2.20;;
40827;SDS011;26549;50.918;5.338;2022-12-22T15:55:29;16.90;;;2.45;;
40827;SDS011;26549;50.918;5.338;2022-12-22T15:57:56;15.50;;;3.78;;
40827;SDS011;26549;50.918;5.338;2022-12-22T16:00:23;11.63;;;2.10;;
40827;SDS011;26549;50.918;5.338;2022-12-22T16:02:49;17.25;;;5.53;;
40827;SDS011;26549;50.918;5.338;2022-12-22T16:05:15;9.05;;;2.40;;
40827;SDS011;26549;50.918;5.338;2022-12-22T16:07:41;8.48;;;2.58;;
40827;SDS011;26549;50.918;5.338;2022-12-22T16:10:27;17.55;;;3.67;;
40827;SDS011;26549;50.918;5.338;2022-12-22T16:12:56;10.48;;;2.47;;
40827;SDS011;26549;50.918;5.338;2022-12-22T16:15:31;19.58;;;3.70;;
40827;SDS011;26549;50.918;5.338;2022-12-22T16:17:58;18.92;;;4.05;;
40827;SDS011;26549;50.918;5.338;2022-12-22T16:20:26;12.52;;;2.80;;
40827;SDS011;26549;50.918;5.338;2022-12-22T16:23:01;22.73;;;3.97;;
40827;SDS011;26549;50.918;5.338;2022-12-22T16:25:33;13.35;;;3.97;;
40827;SDS011;26549;50.918;5.338;2022-12-22T16:28:01;13.07;;;3.22;;
40827;SDS011;26549;50.918;5.338;2022-12-22T16:30:28;22.00;;;3.97;;
40827;SDS011;26549;50.918;5.338;2022-12-22T16:32:56;18.85;;;2.97;;
40827;SDS011;26549;50.918;5.338;2022-12-22T16:35:23;21.77;;;4.13;;
40827;SDS011;26549;50.918;5.338;2022-12-22T16:37:50;21.48;;;3.58;;
40827;SDS011;26549;50.918;5.338;2022-12-22T16:40:17;22.83;;;4.28;;
40827;SDS011;26549;50.918;5.338;2022-12-22T16:43:03;18.45;;;4.60;;
40827;SDS011;26549;50.918;5.338;2022-12-22T16:46:11;16.50;;;3.55;;
40827;SDS011;26549;50.918;5.338;2022-12-22T16:48:44;14.40;;;3.15;;